• Join FlightAware (Why Join?)
  • Login
  • US Flag 
09:15AM EDT


 

Airport Tracker/Info


-or-


 

Live Flight TrackerFlight Track Log ✈ DAL6197 ✈ 22-Mar-2014 ✈ KLGA - KRDU

Flight Track Log - Related Links

Times and Time Zones

All times are in EDT time to prevent confusion due to time zone crossing. See the DAL6197 flight status page for this flight to view local times or setup timezone preferences in your user account.

Time Position Orientation Groundspeed Altitude Reporting Facility
EDT Latitude Longitude Course Direction KTS MPH feet Rate Location/Type
12:06PM 40.7500 -73.9000 201° Southwest 147 169 1,600  Level New York TRACON
12:07PM 40.7000 -73.9000 180° South 212 244 4,000 2,820 Climbing New York TRACON
12:08PM 40.6333 -73.9000 180° South 231 266 7,300 3,000 Climbing New York TRACON
12:09PM 40.5833 -73.9167 194° South 236 272 10,100 2,340 Climbing New York TRACON
12:10PM 40.5333 -73.9833 225° Southwest 240 276 12,000 1,020 Climbing New York TRACON
12:11PM 40.5333 -74.0667 270° West 233 268 12,100 60 Climbing New York TRACON
12:12PM 40.3148 -74.0843 201° Southwest  Level FlightAware Approximate
12:12PM 40.5000 -74.1500 242° Southwest 245 282 12,200  Level New York TRACON
12:13PM 40.4167 -74.1667 189° South 328 377 13,500 1,800 Climbing New York TRACON
12:14PM 40.3456 -74.1806 188° South 338 389 15,300 1,980 Climbing New York Center
12:15PM 40.2619 -74.1981 189° South 338 389 17,000 1,140 Climbing New York Center
12:16PM 40.1675 -74.2206 190° South 338 389 17,600 1,080 Climbing New York Center
12:17PM 40.0711 -74.2375 188° South 343 395 19,200 1,500 Climbing New York Center
12:19PM 39.8761 -74.3722 208° Southwest 346 398 22,500 1,500 Climbing Washington Center
12:20PM 39.7978 -74.4572 220° Southwest 366 421 24,000 1,320 Climbing Washington Center
12:21PM 39.7278 -74.5528 226° Southwest 366 421 25,200 900 Climbing Washington Center
12:22PM 39.6536 -74.6483 225° Southwest 371 427 25,900 360 Climbing Washington Center
12:23PM 39.5792 -74.7433 225° Southwest 376 433 26,000  Climbing Washington Center
12:24PM 39.5069 -74.8411 226° Southwest 381 438 26,000  Level Washington Center
12:25PM 39.4344 -74.9358 225° Southwest 381 438 26,000  Level Washington Center
12:26PM 39.3683 -75.0225 225° Southwest 381 438 26,000  Level Washington Center
12:27PM 39.2958 -75.1169 225° Southwest 381 438 26,000  Level Washington Center
12:28PM 39.2211 -75.2164 226° Southwest 381 438 26,000  Level Washington Center
12:29PM 39.1486 -75.3106 225° Southwest 381 438 26,000  Level Washington Center
12:30PM 39.0758 -75.4044 225° Southwest 381 438 26,000  Level Washington Center
12:31PM 39.0008 -75.5008 225° Southwest 381 438 26,000  Level Washington Center
12:32PM 38.9258 -75.5942 224° Southwest 381 438 26,000  Level Washington Center
12:33PM 38.8694 -75.7036 237° Southwest 381 438 26,000  Level Washington Center
12:34PM 38.8358 -75.8208 250° West 359 413 26,000  Level Washington Center
12:35PM 38.7939 -75.9325 244° Southwest 354 407 26,000  Level Washington Center
12:36PM 38.7125 -76.0094 216° Southwest 354 407 26,000 -300 Level Washington Center
12:37PM 38.6289 -76.0858 216° Southwest 359 413 25,500 -720 Descending Washington Center
12:38PM 38.5325 -76.1756 216° Southwest 384 442 24,600 -900 Descending Washington Center
12:39PM 38.4508 -76.2517 216° Southwest 384 442 23,800 -840 Descending Washington Center
12:40PM 38.3689 -76.3278 216° Southwest 379 436 23,000 -840 Descending Washington Center
12:41PM 38.2914 -76.4011 217° Southwest 365 420 22,200 -540 Descending Washington Center
12:42PM 38.2219 -76.4903 225° Southwest 355 409 22,000 -120 Descending Washington Center
12:43PM 38.1544 -76.5819 227° Southwest 355 409 22,000  Level Washington Center
12:44PM 38.0767 -76.6469 213° Southwest 364 419 22,000  Level Washington Center
12:45PM 37.9844 -76.7036 206° Southwest 374 430 22,000  Level Washington Center
12:46PM 37.8922 -76.7628 207° Southwest 374 430 22,000  Level Washington Center
12:47PM 37.8019 -76.8217 207° Southwest 374 430 22,000  Level Washington Center
12:48PM 37.7097 -76.8781 206° Southwest 369 425 22,000  Level Washington Center
12:49PM 37.6214 -76.9342 207° Southwest 369 425 22,000  Level Washington Center
12:50PM 37.5289 -76.9928 207° Southwest 369 425 22,000  Level Washington Center
12:51PM 37.4239 -77.0589 207° Southwest 381 438 22,000  Level Washington Center
12:52PM 37.3439 -77.1069 206° Southwest 369 425 22,000  Level Washington Center
12:53PM 37.2472 -77.1731 209° Southwest 364 419 22,000  Level Washington Center
12:54PM 37.1567 -77.2336 208° Southwest 369 425 22,000  Level Washington Center
12:55PM 37.0703 -77.2994 211° Southwest 369 425 22,000  Level Washington Center
12:56PM 36.9839 -77.3600 209° Southwest 369 425 22,000  Level Washington Center
12:57PM 36.8953 -77.4281 212° Southwest 369 425 22,000  Level Washington Center
12:58PM 36.8086 -77.4908 210° Southwest 369 425 22,000  Level Washington Center
12:59PM 36.7200 -77.5586 212° Southwest 369 425 22,000 -360 Level Washington Center
01:00PM 36.6311 -77.6236 210° Southwest 369 425 21,300 -900 Descending Washington Center
01:01PM 36.5425 -77.6886 211° Southwest 369 425 20,300 -1,260 Descending Washington Center
01:02PM 36.4681 -77.7719 222° Southwest 369 425 18,900 -1,560 Descending Washington Center
01:03PM 36.4144 -77.8531 231° Southwest 351 404 17,300 -1,680 Descending Washington Center
01:04PM 36.3481 -77.9336 224° Southwest 346 398 15,600 -1,680 Descending Washington Center
01:05PM 36.3008 -77.9967 227° Southwest 317 365 14,500 -1,740 Descending Washington Center
01:05PM 36.2903 -78.0144 234° Southwest 333 383 14,000 -1,500 Descending Washington Center
01:06PM 36.2408 -78.0747 225° Southwest 308 354 13,000 -1,500 Descending Washington Center
01:06PM 36.2300 -78.0922 232° Southwest 323 372 12,500 -1,620 Descending Washington Center
01:07PM 36.1722 -78.1675 226° Southwest 300 345 11,100 -1,500 Descending Washington Center
01:07PM 36.1722 -78.1650 90° East 315 362 11,000 -1,260 Descending Washington Center
01:08PM 36.1439 -78.2283 241° Southwest 267 307 10,100 -1,320 Descending Washington Center
01:08PM 36.1328 -78.2511 239° Southwest 287 330 9,700 -1,440 Descending Washington Center
01:09PM 36.1108 -78.3044 243° Southwest 236 272 8,700 -1,320 Descending Washington Center
01:09PM 36.1083 -78.3197 259° West 253 291 8,400 -1,560 Descending Washington Center
01:10PM 36.0881 -78.3886 250° West 226 260 7,000 -1,680 Descending Washington Center
01:10PM 36.0836 -78.4011 246° West 246 283 6,800 -1,020 Descending Washington Center
01:11PM 36.0653 -78.4647 250° West 234 269 6,000 -900 Descending Washington Center
01:11PM 36.0672 -78.4700 295° West 241 277 5,900 -1,500 Descending Washington Center
01:12PM 36.0469 -78.5361 249° West 209 241 4,600 -1,440 Descending Washington Center
01:12PM 36.0489 -78.5386 314° West 235 270 4,500 -1,200 Descending Washington Center
01:13PM 36.0286 -78.6022 249° West 219 252 3,200 -780 Descending Washington Center
01:14PM 35.9958 -78.6522 231° Southwest 175 201 3,100 -120 Descending Washington Center
01:14PM 35.9981 -78.6522 360° North 197 227 3,100 -480 Level Washington Center
01:15PM 35.9681 -78.6844 221° Southwest 165 190 2,700 -720 Descending Washington Center
01:16PM 35.9397 -78.7244 229° Southwest 137 158 1,800 -780 Descending Washington Center
01:17PM 35.9056 -78.7617 221° Southwest 120 138 1,000 -660 Descending Washington Center
01:19PM 35.8776 -78.7875 219° Southwest  Level Estimated
01:26PM 35.8776 -78.7875 349° North  Level Estimated